Samus Swan — 9HA2333 — position and weather

sailwx.info

Track history (hours):
 
Tides and Currents Weather Stations Pressure Air Temp Water Temp Dewpoint Dewpoint Depression Visibility Wind Speed Wind Dir Waves Ship Positions

Samus Swan

Last reported at 2014-Jul-10 19:29 UTC. Time now 2014-Jul-24 10:47 UTC.
Position N 42°01' E 028°37'.
Warning: this ship's position is 13 days out of date.

Length 106 m; draft 6.2 m.

Type: Ship (hazmat cat B). MMSI: 248363000.

Date/timePositionNaut miles runAvg speedWind from/ knotsBaromVisibWave heightAir tempDewpointWater temp
2014-Jul-10 19:29N 42°01' E 028°37'1010.9
2014-Jul-10 18:33N 41°53' E 028°45'1111.0
2014-Jul-10 17:33N 41°44' E 028°53'1111.0
2014-Jul-10 16:33N 41°35' E 029°02'1211.0
2014-Jul-10 15:26N 41°25' E 029°11'193 4.2
2014-Jul-08 18:05N 39°34' E 025°44'4111.2
2014-Jul-08 14:23N 38°57' E 025°20'911.3
2014-Jul-08 13:33N 38°49' E 025°14'3911.1
2014-Jul-08 10:03N 38°15' E 024°51'3710.5
2014-Jul-08 06:30N 37°46' E 024°22'1311.2
2014-Jul-08 05:19N 37°34' E 024°12'1111.3
2014-Jul-08 04:22N 37°25' E 024°06'2011.2
2014-Jul-08 02:33N 37°08' E 023°52'1211.6
2014-Jul-08 01:33N 36°58' E 023°44'1311.6
2014-Jul-08 00:26N 36°48' E 023°35'2211.5
2014-Jul-07 22:33N 36°30' E 023°20'37311.6
2014-Jul-06 14:26N 36°14' E 015°37'1211.9
2014-Jul-06 13:26N 36°14' E 015°22'1311.5
2014-Jul-06 12:19N 36°14' E 015°06'911.5
2014-Jul-06 11:33N 36°14' E 014°55'1111.5
2014-Jul-06 10:33N 36°14' E 014°41'1111.4
2014-Jul-06 09:33N 36°14' E 014°27'1211.8
2014-Jul-06 08:33N 36°18' E 014°13'1211.8
2014-Jul-06 07:33N 36°23' E 013°60'1211.8
2014-Jul-06 06:33N 36°27' E 013°46'1211.9
2014-Jul-06 05:33N 36°32' E 013°33'1211.9
2014-Jul-06 04:33N 36°36' E 013°19'1312.2
2014-Jul-06 03:30N 36°41' E 013°04'1212.7
2014-Jul-06 02:33N 36°46' E 012°50'1312.4
2014-Jul-06 01:32N 36°50' E 012°35'1212.3
2014-Jul-06 00:33N 36°54' E 012°21'2512.0
2014-Jul-05 22:27N 37°05' E 011°52'1112.1
2014-Jul-05 21:33N 37°10' E 011°40'1212.3
2014-Jul-05 20:33N 37°15' E 011°26'1212.1
2014-Jul-05 19:33N 37°20' E 011°12'1212.1
2014-Jul-05 18:33N 37°24' E 010°58'1212.3
2014-Jul-05 17:33N 37°27' E 010°43'1212.2
2014-Jul-05 16:33N 37°31' E 010°28'1212.4
2014-Jul-05 15:33N 37°33' E 010°13'1313.0
2014-Jul-05 14:34N 37°32' E 009°57'1413.2
2014-Jul-05 13:31N 37°29' E 009°40'7812.3
2014-Jul-05 07:11N 37°15' E 008°03'2112.3
2014-Jul-05 05:27N 37°16' E 007°36'63112.4
2014-Jul-03 02:33N 35°58' W 005°24'  
Track history (hours):
 
Tides and Currents Weather Stations Pressure Air Temp Water Temp Dewpoint Dewpoint Depression Visibility Wind Speed Wind Dir Waves Ship Positions

Samus Swan

Last reported at 2014-Jul-10 19:29 UTC. Time now 2014-Jul-24 10:47 UTC.
Position N 42°01' E 028°37'.
Warning: this ship's position is 13 days out of date.

Length 106 m; draft 6.2 m.

Type: Ship (hazmat cat B). MMSI: 248363000.

Date/timePositionNaut miles runAvg speedWind from/ knotsBaromVisibWave heightAir tempDewpointWater temp
2014-Jul-10 19:29N 42°01' E 028°37'1010.9
2014-Jul-10 18:33N 41°53' E 028°45'1111.0
2014-Jul-10 17:33N 41°44' E 028°53'1111.0
2014-Jul-10 16:33N 41°35' E 029°02'1211.0
2014-Jul-10 15:26N 41°25' E 029°11'193 4.2
2014-Jul-08 18:05N 39°34' E 025°44'4111.2
2014-Jul-08 14:23N 38°57' E 025°20'911.3
2014-Jul-08 13:33N 38°49' E 025°14'3911.1
2014-Jul-08 10:03N 38°15' E 024°51'3710.5
2014-Jul-08 06:30N 37°46' E 024°22'1311.2
2014-Jul-08 05:19N 37°34' E 024°12'1111.3
2014-Jul-08 04:22N 37°25' E 024°06'2011.2
2014-Jul-08 02:33N 37°08' E 023°52'1211.6
2014-Jul-08 01:33N 36°58' E 023°44'1311.6
2014-Jul-08 00:26N 36°48' E 023°35'2211.5
2014-Jul-07 22:33N 36°30' E 023°20'37311.6
2014-Jul-06 14:26N 36°14' E 015°37'1211.9
2014-Jul-06 13:26N 36°14' E 015°22'1311.5
2014-Jul-06 12:19N 36°14' E 015°06'911.5
2014-Jul-06 11:33N 36°14' E 014°55'1111.5
2014-Jul-06 10:33N 36°14' E 014°41'1111.4
2014-Jul-06 09:33N 36°14' E 014°27'1211.8
2014-Jul-06 08:33N 36°18' E 014°13'1211.8
2014-Jul-06 07:33N 36°23' E 013°60'1211.8
2014-Jul-06 06:33N 36°27' E 013°46'1211.9
2014-Jul-06 05:33N 36°32' E 013°33'1211.9
2014-Jul-06 04:33N 36°36' E 013°19'1312.2
2014-Jul-06 03:30N 36°41' E 013°04'1212.7
2014-Jul-06 02:33N 36°46' E 012°50'1312.4
2014-Jul-06 01:32N 36°50' E 012°35'1212.3
2014-Jul-06 00:33N 36°54' E 012°21'2512.0
2014-Jul-05 22:27N 37°05' E 011°52'1112.1
2014-Jul-05 21:33N 37°10' E 011°40'1212.3
2014-Jul-05 20:33N 37°15' E 011°26'1212.1
2014-Jul-05 19:33N 37°20' E 011°12'1212.1
2014-Jul-05 18:33N 37°24' E 010°58'1212.3
2014-Jul-05 17:33N 37°27' E 010°43'1212.2
2014-Jul-05 16:33N 37°31' E 010°28'1212.4
2014-Jul-05 15:33N 37°33' E 010°13'1313.0
2014-Jul-05 14:34N 37°32' E 009°57'1413.2
2014-Jul-05 13:31N 37°29' E 009°40'7812.3
2014-Jul-05 07:11N 37°15' E 008°03'2112.3
2014-Jul-05 05:27N 37°16' E 007°36'63112.4
2014-Jul-03 02:33N 35°58' W 005°24'  

Dump ship's entire track history